createdAt,value
2022-08-17T00:02:25.401Z,2.08
2022-08-17T00:07:28.463Z,1.88
2022-08-17T00:12:42.885Z,1.77
2022-08-17T00:17:48.314Z,2.13
2022-08-17T00:22:50.540Z,1.83
2022-08-17T00:27:52.296Z,1.95
2022-08-17T00:33:14.104Z,1.88
2022-08-17T00:38:19.221Z,2.10
2022-08-17T00:43:38.910Z,2.13
2022-08-17T00:48:42.320Z,1.85
2022-08-17T00:53:49.900Z,2.30
2022-08-17T00:58:54.455Z,2.08
2022-08-17T01:03:57.436Z,2.22
2022-08-17T01:09:03.589Z,2.10
2022-08-17T01:14:05.268Z,2.10
2022-08-17T01:19:16.243Z,2.22
2022-08-17T01:24:18.659Z,2.40
2022-08-17T01:29:23.036Z,2.10
2022-08-17T01:34:25.046Z,2.40
2022-08-17T01:39:56.062Z,2.20
2022-08-17T01:45:02.732Z,2.30
2022-08-17T01:50:16.035Z,2.50
2022-08-17T01:55:27.237Z,2.05
2022-08-17T02:00:47.798Z,2.58
2022-08-17T02:05:53.352Z,2.50
2022-08-17T02:10:55.622Z,2.63
2022-08-17T02:15:59.648Z,2.60
2022-08-17T02:21:02.570Z,2.70
2022-08-17T02:26:05.189Z,2.85
2022-08-17T02:31:11.173Z,2.92
2022-08-17T02:36:13.921Z,2.60
2022-08-17T02:41:15.789Z,2.60
2022-08-17T02:46:17.442Z,2.70
2022-08-17T02:51:19.135Z,2.92
2022-08-17T02:56:20.853Z,2.63
2022-08-17T03:01:22.535Z,2.78
2022-08-17T03:06:24.229Z,2.80
2022-08-17T03:11:25.811Z,2.80
2022-08-17T03:16:27.614Z,3.00
2022-08-17T03:21:29.226Z,2.85
2022-08-17T03:26:32.041Z,2.80
2022-08-17T03:31:33.655Z,3.03
2022-08-17T03:36:38.858Z,3.30
2022-08-17T03:41:40.513Z,2.60
2022-08-17T03:47:01.029Z,2.70
2022-08-17T03:52:22.079Z,3.13
2022-08-17T03:57:25.109Z,3.22
2022-08-17T04:02:32.560Z,2.88
2022-08-17T04:07:34.261Z,3.53
2022-08-17T04:12:49.694Z,3.72
2022-08-17T04:17:52.543Z,2.90
2022-08-17T04:23:09.965Z,3.22
2022-08-17T04:28:15.779Z,3.17
2022-08-17T04:33:21.907Z,3.63
2022-08-17T04:38:27.377Z,3.33
2022-08-17T04:43:31.050Z,2.90
2022-08-17T04:48:37.568Z,3.08
2022-08-17T04:53:42.094Z,3.00
2022-08-17T04:58:46.007Z,3.28
2022-08-17T05:03:47.768Z,2.88
2022-08-17T05:08:49.698Z,3.13
2022-08-17T05:13:51.587Z,3.25
2022-08-17T05:18:53.444Z,3.08
2022-08-17T05:23:58.518Z,3.08
2022-08-17T05:29:02.559Z,3.20
2022-08-17T05:34:04.718Z,3.10
2022-08-17T05:39:06.636Z,3.00
2022-08-17T05:44:08.232Z,3.13
2022-08-17T05:49:19.048Z,3.10
2022-08-17T05:54:39.596Z,3.10
2022-08-17T06:00:15.933Z,2.60
2022-08-17T06:05:50.471Z,2.92
2022-08-17T06:10:55.125Z,3.00
2022-08-17T06:16:33.829Z,2.95
2022-08-17T06:21:37.580Z,2.80
2022-08-17T06:26:45.487Z,2.42
2022-08-17T06:31:47.302Z,2.42
2022-08-17T06:37:25.687Z,2.80
2022-08-17T06:43:05.792Z,2.60
2022-08-17T06:48:25.713Z,2.80
2022-08-17T06:53:35.777Z,2.53
2022-08-17T06:58:40.429Z,2.63
2022-08-17T07:04:11.551Z,2.22
2022-08-17T07:09:31.441Z,2.38
2022-08-17T07:14:48.927Z,2.30
2022-08-17T07:20:08.875Z,1.90
2022-08-17T07:25:18.625Z,2.00
2022-08-17T07:30:45.661Z,1.85
2022-08-17T07:35:50.261Z,1.95
2022-08-17T07:40:58.236Z,2.15
2022-08-17T07:46:21.443Z,1.90
2022-08-17T07:51:26.076Z,2.20
2022-08-17T07:56:37.939Z,1.60
2022-08-17T08:01:42.002Z,1.63
2022-08-17T08:06:52.792Z,1.83
2022-08-17T08:11:54.447Z,1.40
2022-08-17T08:17:10.213Z,1.42
2022-08-17T08:22:22.291Z,1.52
2022-08-17T08:27:45.938Z,1.45
2022-08-17T08:32:54.155Z,1.67
2022-08-17T08:38:20.122Z,1.40
2022-08-17T08:43:36.185Z,1.50
2022-08-17T08:49:10.143Z,1.60
2022-08-17T08:54:26.711Z,1.80
2022-08-17T08:59:57.713Z,1.77
2022-08-17T09:05:22.050Z,1.58
2022-08-17T09:10:49.673Z,1.58
2022-08-17T09:22:12.547Z,1.10
2022-08-17T09:27:22.655Z,1.30
2022-08-17T09:32:41.494Z,1.33
2022-08-17T09:38:23.682Z,1.50
2022-08-17T09:43:41.273Z,1.60
2022-08-17T09:49:01.858Z,1.23
2022-08-17T09:54:21.350Z,1.42
2022-08-17T09:59:38.385Z,1.55
2022-08-17T10:05:07.488Z,1.55
2022-08-17T10:10:25.642Z,1.30
2022-08-17T10:16:08.129Z,1.35
2022-08-17T10:21:33.959Z,1.25
2022-08-17T10:26:40.369Z,1.60
2022-08-17T10:32:09.214Z,1.40
2022-08-17T10:37:20.040Z,1.35
2022-08-17T10:42:34.087Z,1.05
2022-08-17T10:47:56.080Z,1.08
2022-08-17T10:52:59.531Z,1.15
2022-08-17T10:58:21.088Z,1.25
2022-08-17T11:03:25.292Z,1.15
2022-08-17T11:08:45.777Z,1.20
2022-08-17T11:14:17.094Z,1.38
2022-08-17T11:19:38.998Z,1.38
2022-08-17T11:24:45.639Z,1.15
2022-08-17T11:29:59.480Z,1.30
2022-08-17T11:35:20.001Z,1.30
2022-08-17T11:40:41.587Z,1.48
2022-08-17T11:46:13.961Z,1.15
2022-08-17T11:51:33.865Z,1.50
2022-08-17T11:56:38.800Z,1.00
2022-08-17T12:02:01.931Z,1.30
2022-08-17T12:07:08.807Z,1.10
2022-08-17T12:12:14.688Z,1.00
2022-08-17T12:17:40.658Z,1.30
2022-08-17T12:23:10.265Z,0.93
2022-08-17T12:28:29.517Z,1.30
2022-08-17T12:33:31.730Z,1.30
2022-08-17T12:38:36.529Z,0.88
2022-08-17T12:43:38.395Z,1.10
2022-08-17T12:48:40.108Z,1.02
2022-08-17T12:54:02.294Z,1.27
2022-08-17T12:59:04.143Z,1.13
2022-08-17T13:04:06.614Z,1.48
2022-08-17T13:09:19.865Z,1.13
2022-08-17T13:14:22.074Z,1.33
2022-08-17T13:19:29.857Z,1.30
2022-08-17T13:24:57.543Z,1.10
2022-08-17T13:35:29.492Z,1.10
2022-08-17T13:40:50.179Z,1.20
2022-08-17T13:50:54.633Z,1.20
2022-08-17T13:56:37.370Z,1.10
2022-08-17T14:01:42.641Z,1.40
2022-08-17T14:06:52.275Z,1.00
2022-08-17T14:11:57.575Z,1.30
2022-08-17T14:16:59.429Z,1.38
2022-08-17T14:22:01.780Z,1.27
2022-08-17T14:27:06.874Z,1.10
2022-08-17T14:32:23.037Z,1.40
2022-08-17T14:37:28.039Z,0.80
2022-08-17T14:42:33.022Z,1.40
2022-08-17T14:47:37.125Z,1.25
2022-08-17T14:52:43.001Z,1.25
2022-08-17T14:57:45.647Z,1.13
2022-08-17T15:02:56.292Z,1.10
2022-08-17T15:07:59.396Z,0.98
2022-08-17T15:13:01.191Z,1.38
2022-08-17T15:18:03.373Z,0.95
2022-08-17T15:23:07.288Z,1.20
2022-08-17T15:28:08.985Z,1.23
2022-08-17T15:33:17.597Z,1.40
2022-08-17T15:38:19.778Z,0.90
2022-08-17T15:43:27.854Z,1.30
2022-08-17T15:48:41.826Z,1.30
2022-08-17T15:53:46.833Z,1.52
2022-08-17T15:58:49.306Z,1.00
2022-08-17T16:04:04.518Z,1.00
2022-08-17T16:09:08.443Z,1.17
2022-08-17T16:14:10.342Z,1.20
2022-08-17T16:19:15.505Z,1.40
2022-08-17T16:24:17.177Z,1.38
2022-08-17T16:29:18.794Z,1.40
2022-08-17T16:34:21.668Z,1.20
2022-08-17T16:39:29.277Z,1.40
2022-08-17T16:44:32.611Z,1.30
2022-08-17T16:49:37.427Z,1.40
2022-08-17T16:54:43.771Z,1.30
2022-08-17T16:59:50.424Z,1.23
2022-08-17T17:05:02.928Z,1.30
2022-08-17T17:10:12.515Z,1.30
2022-08-17T17:15:20.078Z,1.23
2022-08-17T17:20:28.630Z,1.30
2022-08-17T17:25:57.530Z,1.33
2022-08-17T17:31:05.251Z,1.40
2022-08-17T17:36:29.068Z,1.10
2022-08-17T17:41:41.967Z,1.30
2022-08-17T17:46:50.678Z,1.58
2022-08-17T17:52:05.884Z,1.70
2022-08-17T17:57:17.847Z,1.58
2022-08-17T18:03:01.180Z,1.67
2022-08-17T18:08:34.743Z,2.72
2022-08-17T18:13:53.325Z,1.90
2022-08-17T18:18:57.978Z,1.63
2022-08-17T18:24:02.198Z,1.85
2022-08-17T18:29:22.782Z,2.00
2022-08-17T18:34:47.677Z,1.80
2022-08-17T18:39:49.831Z,2.03
2022-08-17T18:44:55.054Z,1.80
2022-08-17T18:50:18.515Z,1.77
2022-08-17T18:55:28.526Z,1.70
2022-08-17T19:00:38.205Z,1.73
2022-08-17T19:05:43.393Z,1.70
2022-08-17T19:10:47.354Z,1.95
2022-08-17T19:16:11.795Z,2.03
2022-08-17T19:21:23.034Z,2.10
2022-08-17T19:26:54.451Z,2.05
2022-08-17T19:31:58.864Z,1.70
2022-08-17T19:37:09.822Z,1.77
2022-08-17T19:42:18.090Z,1.98
2022-08-17T19:47:54.936Z,1.60
2022-08-17T19:53:18.790Z,1.80
2022-08-17T19:58:48.934Z,1.80
2022-08-17T20:04:20.657Z,2.20
2022-08-17T20:09:34.970Z,1.70
2022-08-17T20:14:55.354Z,1.90
2022-08-17T20:20:20.218Z,1.92
2022-08-17T20:25:35.392Z,1.80
2022-08-17T20:30:42.545Z,1.85
2022-08-17T20:36:02.387Z,2.20
2022-08-17T20:41:04.044Z,1.90
2022-08-17T20:46:28.188Z,1.90
2022-08-17T20:51:34.767Z,1.75
2022-08-17T20:56:43.274Z,1.77
2022-08-17T21:02:17.608Z,1.92
2022-08-17T21:07:42.634Z,1.98
2022-08-17T21:13:23.046Z,2.17
2022-08-17T21:18:48.522Z,2.10
2022-08-17T21:24:20.228Z,2.30
2022-08-17T21:29:32.465Z,2.33
2022-08-17T21:34:42.631Z,2.03
2022-08-17T21:39:49.210Z,2.22
2022-08-17T21:44:57.980Z,2.00
2022-08-17T21:50:19.836Z,2.10
2022-08-17T21:55:29.872Z,2.47
2022-08-17T22:00:32.908Z,2.20
2022-08-17T22:05:37.865Z,2.17
2022-08-17T22:10:44.539Z,1.95
2022-08-17T22:15:49.695Z,2.80
2022-08-17T22:20:55.380Z,2.67
2022-08-17T22:26:09.581Z,2.30
2022-08-17T22:31:20.704Z,2.33
2022-08-17T22:41:39.097Z,2.30
2022-08-17T22:46:50.824Z,2.50
2022-08-17T22:52:01.727Z,2.17
2022-08-17T22:57:23.508Z,2.40
2022-08-17T23:02:28.720Z,2.25
2022-08-17T23:07:30.371Z,2.45
2022-08-17T23:12:33.267Z,2.30
2022-08-17T23:17:37.425Z,2.20
2022-08-17T23:22:51.776Z,2.70
2022-08-17T23:27:55.762Z,2.42
2022-08-17T23:33:01.527Z,2.40
2022-08-17T23:38:03.232Z,2.47
2022-08-17T23:43:24.021Z,2.60
2022-08-17T23:48:36.290Z,2.50
2022-08-17T23:53:42.880Z,2.30
2022-08-17T23:58:44.923Z,2.40
